sensor_id;sensor_type;location;lat;lon;timestamp;pressure;altitude;pressure_sealevel;temperature;humidity
77212;BME280;66206;0.000;0.000;2023-08-06T00:00:31;97134.24;;;23.52;37.17
77212;BME280;66206;0.000;0.000;2023-08-06T00:02:58;97135.25;;;23.66;37.30
77212;BME280;66206;0.000;0.000;2023-08-06T00:05:25;97135.34;;;23.64;37.17
77212;BME280;66206;0.000;0.000;2023-08-06T00:07:51;97135.78;;;24.06;36.80
77212;BME280;66206;0.000;0.000;2023-08-06T00:10:18;97132.41;;;23.59;37.16
77212;BME280;66206;0.000;0.000;2023-08-06T00:12:45;97133.99;;;23.74;37.13
77212;BME280;66206;0.000;0.000;2023-08-06T00:15:12;97134.11;;;23.70;37.22
77212;BME280;66206;0.000;0.000;2023-08-06T00:17:39;97128.97;;;23.09;37.73
77212;BME280;66206;0.000;0.000;2023-08-06T00:20:06;97124.85;;;23.37;37.47
77212;BME280;66206;0.000;0.000;2023-08-06T00:22:33;97124.25;;;23.40;37.38
77212;BME280;66206;0.000;0.000;2023-08-06T00:25:00;97121.68;;;23.84;36.89
77212;BME280;66206;0.000;0.000;2023-08-06T00:27:27;97119.21;;;23.25;37.55
77212;BME280;66206;0.000;0.000;2023-08-06T00:29:54;97112.97;;;23.11;37.75
77212;BME280;66206;0.000;0.000;2023-08-06T00:32:21;97107.80;;;23.23;37.70
77212;BME280;66206;0.000;0.000;2023-08-06T00:34:47;97097.06;;;23.45;37.42
77212;BME280;66206;0.000;0.000;2023-08-06T00:37:14;97094.62;;;23.39;37.49
77212;BME280;66206;0.000;0.000;2023-08-06T00:39:41;97089.86;;;23.61;37.19
77212;BME280;66206;0.000;0.000;2023-08-06T00:42:08;97079.66;;;23.68;37.14
77212;BME280;66206;0.000;0.000;2023-08-06T00:44:35;97067.21;;;23.55;37.15
77212;BME280;66206;0.000;0.000;2023-08-06T00:47:02;97065.49;;;23.43;37.14
77212;BME280;66206;0.000;0.000;2023-08-06T00:49:29;97065.44;;;23.58;37.16
77212;BME280;66206;0.000;0.000;2023-08-06T00:51:55;97068.62;;;23.77;36.83
77212;BME280;66206;0.000;0.000;2023-08-06T00:54:23;97072.51;;;23.77;36.65
77212;BME280;66206;0.000;0.000;2023-08-06T00:56:50;97076.29;;;24.03;36.52
77212;BME280;66206;0.000;0.000;2023-08-06T00:59:17;97080.49;;;23.79;36.78
77212;BME280;66206;0.000;0.000;2023-08-06T01:01:43;97082.67;;;23.80;36.65
77212;BME280;66206;0.000;0.000;2023-08-06T01:04:11;97079.45;;;23.85;36.74
77212;BME280;66206;0.000;0.000;2023-08-06T01:06:39;97078.64;;;23.46;37.13
77212;BME280;66206;0.000;0.000;2023-08-06T01:09:11;97082.64;;;23.79;36.92
77212;BME280;66206;0.000;0.000;2023-08-06T01:11:44;97082.60;;;23.72;36.84
77212;BME280;66206;0.000;0.000;2023-08-06T01:13:59;97084.56;;;23.93;36.71
77212;BME280;66206;0.000;0.000;2023-08-06T01:16:28;97084.77;;;23.96;36.54
77212;BME280;66206;0.000;0.000;2023-08-06T01:18:57;97081.48;;;24.01;36.57
77212;BME280;66206;0.000;0.000;2023-08-06T01:21:24;97078.96;;;23.82;36.55
77212;BME280;66206;0.000;0.000;2023-08-06T01:23:51;97077.85;;;23.42;37.34
77212;BME280;66206;0.000;0.000;2023-08-06T01:26:21;97078.54;;;23.69;36.96
77212;BME280;66206;0.000;0.000;2023-08-06T01:28:47;97076.20;;;23.70;36.74
77212;BME280;66206;0.000;0.000;2023-08-06T01:31:10;97074.77;;;23.75;36.79
77212;BME280;66206;0.000;0.000;2023-08-06T01:33:35;97070.75;;;23.85;36.66
77212;BME280;66206;0.000;0.000;2023-08-06T01:36:01;97064.24;;;23.60;37.08
77212;BME280;66206;0.000;0.000;2023-08-06T01:38:29;97057.34;;;23.66;36.76
77212;BME280;66206;0.000;0.000;2023-08-06T01:40:55;97057.21;;;23.80;36.97
77212;BME280;66206;0.000;0.000;2023-08-06T01:43:22;97055.86;;;23.74;36.89
77212;BME280;66206;0.000;0.000;2023-08-06T01:45:49;97052.46;;;23.68;36.81
77212;BME280;66206;0.000;0.000;2023-08-06T01:48:16;97049.46;;;23.88;36.60
77212;BME280;66206;0.000;0.000;2023-08-06T01:50:42;97049.63;;;23.82;36.50
77212;BME280;66206;0.000;0.000;2023-08-06T01:53:09;97048.00;;;23.41;36.99
77212;BME280;66206;0.000;0.000;2023-08-06T01:55:36;97046.02;;;23.59;36.74
77212;BME280;66206;0.000;0.000;2023-08-06T01:58:02;97044.52;;;23.69;36.55
77212;BME280;66206;0.000;0.000;2023-08-06T02:00:29;97042.96;;;23.82;36.59
77212;BME280;66206;0.000;0.000;2023-08-06T02:02:56;97042.24;;;23.67;36.39
77212;BME280;66206;0.000;0.000;2023-08-06T02:05:23;97043.85;;;23.72;36.64
77212;BME280;66206;0.000;0.000;2023-08-06T02:07:49;97042.42;;;23.63;36.82
77212;BME280;66206;0.000;0.000;2023-08-06T02:10:16;97043.87;;;23.54;36.73
77212;BME280;66206;0.000;0.000;2023-08-06T02:12:43;97040.71;;;23.50;36.85
77212;BME280;66206;0.000;0.000;2023-08-06T02:15:10;97036.21;;;23.61;36.57
77212;BME280;66206;0.000;0.000;2023-08-06T02:17:36;97032.94;;;23.59;36.44
77212;BME280;66206;0.000;0.000;2023-08-06T02:20:03;97029.26;;;23.70;36.36
77212;BME280;66206;0.000;0.000;2023-08-06T02:22:30;97025.55;;;23.57;36.42
77212;BME280;66206;0.000;0.000;2023-08-06T02:24:57;97025.56;;;23.47;36.49
77212;BME280;66206;0.000;0.000;2023-08-06T02:27:24;97026.80;;;23.41;36.50
77212;BME280;66206;0.000;0.000;2023-08-06T02:29:50;97033.40;;;23.53;36.30
77212;BME280;66206;0.000;0.000;2023-08-06T02:32:17;97025.47;;;23.53;36.39
77212;BME280;66206;0.000;0.000;2023-08-06T02:34:44;97024.49;;;23.73;36.11
77212;BME280;66206;0.000;0.000;2023-08-06T02:37:11;97022.42;;;23.55;35.86
77212;BME280;66206;0.000;0.000;2023-08-06T02:39:38;97023.93;;;23.80;35.77
77212;BME280;66206;0.000;0.000;2023-08-06T02:42:05;97025.43;;;23.74;35.80
77212;BME280;66206;0.000;0.000;2023-08-06T02:44:32;97018.46;;;23.69;35.66
77212;BME280;66206;0.000;0.000;2023-08-06T02:46:58;97008.10;;;23.71;35.71
77212;BME280;66206;0.000;0.000;2023-08-06T02:49:25;96999.28;;;23.59;35.70
77212;BME280;66206;0.000;0.000;2023-08-06T02:51:52;96992.26;;;23.44;36.01
77212;BME280;66206;0.000;0.000;2023-08-06T02:54:19;96991.45;;;23.38;36.23
77212;BME280;66206;0.000;0.000;2023-08-06T02:56:46;96990.38;;;23.60;35.81
77212;BME280;66206;0.000;0.000;2023-08-06T02:59:12;96997.41;;;23.62;35.69
77212;BME280;66206;0.000;0.000;2023-08-06T03:01:39;96995.54;;;23.38;36.13
77212;BME280;66206;0.000;0.000;2023-08-06T03:04:07;96998.65;;;23.54;35.81
77212;BME280;66206;0.000;0.000;2023-08-06T03:06:34;96998.16;;;23.67;35.63
77212;BME280;66206;0.000;0.000;2023-08-06T03:09:00;96996.66;;;23.76;35.66
77212;BME280;66206;0.000;0.000;2023-08-06T03:11:27;96987.60;;;23.61;35.76
77212;BME280;66206;0.000;0.000;2023-08-06T03:13:54;96978.83;;;23.85;35.50
77212;BME280;66206;0.000;0.000;2023-08-06T03:16:20;96977.35;;;23.69;35.61
77212;BME280;66206;0.000;0.000;2023-08-06T03:18:47;96978.08;;;23.77;35.46
77212;BME280;66206;0.000;0.000;2023-08-06T03:21:14;96982.84;;;23.79;35.55
77212;BME280;66206;0.000;0.000;2023-08-06T03:23:41;96985.51;;;23.83;35.50
77212;BME280;66206;0.000;0.000;2023-08-06T03:26:07;96978.89;;;23.91;35.53
77212;BME280;66206;0.000;0.000;2023-08-06T03:28:34;96971.62;;;23.85;35.59
77212;BME280;66206;0.000;0.000;2023-08-06T03:31:01;96973.36;;;23.85;35.69
77212;BME280;66206;0.000;0.000;2023-08-06T03:33:28;96969.49;;;23.96;35.57
77212;BME280;66206;0.000;0.000;2023-08-06T03:35:55;96960.61;;;23.91;35.54
77212;BME280;66206;0.000;0.000;2023-08-06T03:38:22;96955.10;;;23.87;35.61
77212;BME280;66206;0.000;0.000;2023-08-06T03:40:49;96953.10;;;23.72;35.90
77212;BME280;66206;0.000;0.000;2023-08-06T03:43:15;96952.32;;;23.73;35.81
77212;BME280;66206;0.000;0.000;2023-08-06T03:45:42;96952.80;;;23.73;35.92
77212;BME280;66206;0.000;0.000;2023-08-06T03:48:09;96946.65;;;23.81;35.74
77212;BME280;66206;0.000;0.000;2023-08-06T03:50:36;96940.38;;;23.88;35.86
77212;BME280;66206;0.000;0.000;2023-08-06T03:53:03;96945.73;;;23.76;35.77
77212;BME280;66206;0.000;0.000;2023-08-06T03:55:29;96948.28;;;23.86;35.70
77212;BME280;66206;0.000;0.000;2023-08-06T03:57:56;96944.10;;;23.81;35.74
77212;BME280;66206;0.000;0.000;2023-08-06T04:00:23;96943.20;;;23.82;35.82
77212;BME280;66206;0.000;0.000;2023-08-06T04:02:50;96938.23;;;23.91;35.74
77212;BME280;66206;0.000;0.000;2023-08-06T04:05:16;96938.58;;;23.72;35.82
77212;BME280;66206;0.000;0.000;2023-08-06T04:07:43;96942.72;;;24.06;35.59
77212;BME280;66206;0.000;0.000;2023-08-06T04:10:10;96943.86;;;23.90;35.68
77212;BME280;66206;0.000;0.000;2023-08-06T04:12:37;96947.21;;;23.95;35.70
77212;BME280;66206;0.000;0.000;2023-08-06T04:15:04;96948.73;;;23.82;35.62
77212;BME280;66206;0.000;0.000;2023-08-06T04:17:31;96947.79;;;23.90;35.50
77212;BME280;66206;0.000;0.000;2023-08-06T04:19:58;96948.76;;;23.80;35.56
77212;BME280;66206;0.000;0.000;2023-08-06T04:22:25;96950.97;;;23.82;35.56
77212;BME280;66206;0.000;0.000;2023-08-06T04:24:52;96950.03;;;23.67;35.48
77212;BME280;66206;0.000;0.000;2023-08-06T04:27:18;96950.18;;;23.80;35.59
77212;BME280;66206;0.000;0.000;2023-08-06T04:29:45;96948.74;;;23.73;35.59
77212;BME280;66206;0.000;0.000;2023-08-06T04:32:12;96950.53;;;23.72;35.56
77212;BME280;66206;0.000;0.000;2023-08-06T04:34:39;96948.26;;;23.85;35.49
77212;BME280;66206;0.000;0.000;2023-08-06T04:37:06;96946.53;;;23.99;35.37
77212;BME280;66206;0.000;0.000;2023-08-06T04:39:33;96947.33;;;23.79;35.48
77212;BME280;66206;0.000;0.000;2023-08-06T04:41:59;96945.74;;;23.90;35.36
77212;BME280;66206;0.000;0.000;2023-08-06T04:44:26;96948.06;;;23.95;35.42
77212;BME280;66206;0.000;0.000;2023-08-06T04:46:53;96947.92;;;23.88;35.43
77212;BME280;66206;0.000;0.000;2023-08-06T04:49:20;96949.23;;;23.96;35.28
77212;BME280;66206;0.000;0.000;2023-08-06T04:51:47;96948.90;;;23.86;35.37
77212;BME280;66206;0.000;0.000;2023-08-06T04:54:14;96949.68;;;23.80;35.39
77212;BME280;66206;0.000;0.000;2023-08-06T04:56:41;96945.17;;;23.83;35.42
77212;BME280;66206;0.000;0.000;2023-08-06T04:59:07;96944.97;;;23.65;35.54
77212;BME280;66206;0.000;0.000;2023-08-06T05:01:34;96939.85;;;23.88;35.30
77212;BME280;66206;0.000;0.000;2023-08-06T05:04:01;96938.65;;;23.83;35.20
77212;BME280;66206;0.000;0.000;2023-08-06T05:06:28;96937.86;;;23.86;35.32
77212;BME280;66206;0.000;0.000;2023-08-06T05:08:54;96936.24;;;23.91;35.34
77212;BME280;66206;0.000;0.000;2023-08-06T05:11:21;96937.24;;;23.65;35.46
77212;BME280;66206;0.000;0.000;2023-08-06T05:13:48;96937.72;;;23.84;35.25
77212;BME280;66206;0.000;0.000;2023-08-06T05:16:15;96934.84;;;23.71;35.43
77212;BME280;66206;0.000;0.000;2023-08-06T05:18:41;96934.64;;;23.68;35.36
77212;BME280;66206;0.000;0.000;2023-08-06T05:21:08;96936.72;;;23.79;35.35
77212;BME280;66206;0.000;0.000;2023-08-06T05:23:35;96940.82;;;23.88;35.18
77212;BME280;66206;0.000;0.000;2023-08-06T05:26:02;96941.77;;;23.72;35.37
77212;BME280;66206;0.000;0.000;2023-08-06T05:28:28;96940.58;;;23.69;35.49
77212;BME280;66206;0.000;0.000;2023-08-06T05:30:55;96936.92;;;23.61;35.55
77212;BME280;66206;0.000;0.000;2023-08-06T05:33:22;96933.51;;;23.58;35.71
77212;BME280;66206;0.000;0.000;2023-08-06T05:35:49;96931.42;;;23.62;35.54
77212;BME280;66206;0.000;0.000;2023-08-06T05:38:16;96932.22;;;23.79;35.53
77212;BME280;66206;0.000;0.000;2023-08-06T05:40:42;96929.34;;;23.75;35.58
77212;BME280;66206;0.000;0.000;2023-08-06T05:43:09;96930.05;;;23.67;35.66
77212;BME280;66206;0.000;0.000;2023-08-06T05:45:36;96931.18;;;23.57;35.77
77212;BME280;66206;0.000;0.000;2023-08-06T05:48:03;96937.35;;;23.52;35.89
77212;BME280;66206;0.000;0.000;2023-08-06T05:50:30;96935.62;;;23.48;35.95
77212;BME280;66206;0.000;0.000;2023-08-06T05:52:57;96933.96;;;23.44;35.96
77212;BME280;66206;0.000;0.000;2023-08-06T05:55:23;96930.42;;;23.42;35.90
77212;BME280;66206;0.000;0.000;2023-08-06T05:57:50;96928.78;;;23.41;35.94
77212;BME280;66206;0.000;0.000;2023-08-06T06:00:17;96925.82;;;23.53;35.92
77212;BME280;66206;0.000;0.000;2023-08-06T06:02:44;96927.02;;;23.42;36.06
77212;BME280;66206;0.000;0.000;2023-08-06T06:05:10;96931.17;;;23.02;36.66
77212;BME280;66206;0.000;0.000;2023-08-06T06:07:37;96927.00;;;23.29;36.22
77212;BME280;66206;0.000;0.000;2023-08-06T06:10:04;96925.46;;;23.64;35.76
77212;BME280;66206;0.000;0.000;2023-08-06T06:12:31;96929.16;;;22.88;36.67
77212;BME280;66206;0.000;0.000;2023-08-06T06:14:58;96925.11;;;23.26;36.19
77212;BME280;66206;0.000;0.000;2023-08-06T06:17:25;96925.54;;;23.53;35.91
77212;BME280;66206;0.000;0.000;2023-08-06T06:19:51;96929.69;;;23.08;36.50
77212;BME280;66206;0.000;0.000;2023-08-06T06:22:18;96929.02;;;23.42;36.17
77212;BME280;66206;0.000;0.000;2023-08-06T06:24:45;96923.92;;;23.45;36.12
77212;BME280;66206;0.000;0.000;2023-08-06T06:27:12;96925.30;;;23.51;36.16
77212;BME280;66206;0.000;0.000;2023-08-06T06:29:38;96926.51;;;23.61;35.90
77212;BME280;66206;0.000;0.000;2023-08-06T06:32:05;96923.93;;;23.39;36.22
77212;BME280;66206;0.000;0.000;2023-08-06T06:34:32;96923.48;;;23.59;35.97
77212;BME280;66206;0.000;0.000;2023-08-06T06:36:59;96922.48;;;23.55;35.95
77212;BME280;66206;0.000;0.000;2023-08-06T06:39:26;96921.59;;;23.64;35.91
77212;BME280;66206;0.000;0.000;2023-08-06T06:41:52;96919.50;;;23.51;36.03
77212;BME280;66206;0.000;0.000;2023-08-06T06:44:19;96916.59;;;23.65;35.95
77212;BME280;66206;0.000;0.000;2023-08-06T06:46:46;96922.99;;;23.63;36.07
77212;BME280;66206;0.000;0.000;2023-08-06T06:49:13;96923.21;;;23.73;35.97
77212;BME280;66206;0.000;0.000;2023-08-06T06:51:39;96921.92;;;23.57;35.91
77212;BME280;66206;0.000;0.000;2023-08-06T06:54:06;96919.69;;;23.73;35.84
77212;BME280;66206;0.000;0.000;2023-08-06T06:56:33;96920.91;;;23.73;35.89
77212;BME280;66206;0.000;0.000;2023-08-06T06:59:00;96917.91;;;23.44;36.14
77212;BME280;66206;0.000;0.000;2023-08-06T07:01:27;96918.61;;;23.82;35.89
77212;BME280;66206;0.000;0.000;2023-08-06T07:03:54;96918.09;;;23.70;35.98
77212;BME280;66206;0.000;0.000;2023-08-06T07:06:21;96915.66;;;23.69;36.07
77212;BME280;66206;0.000;0.000;2023-08-06T07:08:47;96919.10;;;23.72;36.01
77212;BME280;66206;0.000;0.000;2023-08-06T07:11:14;96917.80;;;23.44;36.28
77212;BME280;66206;0.000;0.000;2023-08-06T07:13:41;96916.47;;;23.61;36.10
77212;BME280;66206;0.000;0.000;2023-08-06T07:16:08;96918.71;;;23.57;36.17
77212;BME280;66206;0.000;0.000;2023-08-06T07:18:34;96918.74;;;23.55;36.14
77212;BME280;66206;0.000;0.000;2023-08-06T07:21:01;96917.10;;;23.80;36.03
77212;BME280;66206;0.000;0.000;2023-08-06T07:23:28;96920.23;;;23.62;36.04
77212;BME280;66206;0.000;0.000;2023-08-06T07:25:55;96918.96;;;23.79;36.00
77212;BME280;66206;0.000;0.000;2023-08-06T07:28:22;96919.59;;;23.37;36.38
77212;BME280;66206;0.000;0.000;2023-08-06T07:30:48;96921.13;;;23.43;36.26
77212;BME280;66206;0.000;0.000;2023-08-06T07:33:15;96920.48;;;23.37;36.36
77212;BME280;66206;0.000;0.000;2023-08-06T07:35:42;96920.77;;;23.48;36.37
77212;BME280;66206;0.000;0.000;2023-08-06T07:38:09;96917.84;;;23.64;36.16
77212;BME280;66206;0.000;0.000;2023-08-06T07:40:35;96915.76;;;23.33;36.41
77212;BME280;66206;0.000;0.000;2023-08-06T07:43:02;96915.27;;;23.44;36.46
77212;BME280;66206;0.000;0.000;2023-08-06T07:45:32;96910.88;;;23.53;36.26
77212;BME280;66206;0.000;0.000;2023-08-06T07:47:58;96904.74;;;23.38;36.46
77212;BME280;66206;0.000;0.000;2023-08-06T07:50:25;96901.49;;;23.23;36.60
77212;BME280;66206;0.000;0.000;2023-08-06T07:52:52;96898.73;;;23.29;36.57
77212;BME280;66206;0.000;0.000;2023-08-06T07:55:19;96901.04;;;23.56;36.25
77212;BME280;66206;0.000;0.000;2023-08-06T07:57:45;96898.59;;;23.51;36.17
77212;BME280;66206;0.000;0.000;2023-08-06T08:00:12;96893.73;;;23.79;35.99
77212;BME280;66206;0.000;0.000;2023-08-06T08:02:39;96891.97;;;23.38;36.31
77212;BME280;66206;0.000;0.000;2023-08-06T08:05:06;96887.42;;;23.42;36.10
77212;BME280;66206;0.000;0.000;2023-08-06T08:07:33;96885.53;;;23.30;36.28
77212;BME280;66206;0.000;0.000;2023-08-06T08:10:00;96885.02;;;23.56;35.84
77212;BME280;66206;0.000;0.000;2023-08-06T08:12:26;96882.33;;;23.38;36.08
77212;BME280;66206;0.000;0.000;2023-08-06T08:14:53;96879.37;;;23.40;35.99
77212;BME280;66206;0.000;0.000;2023-08-06T08:17:20;96876.06;;;23.59;35.78
77212;BME280;66206;0.000;0.000;2023-08-06T08:19:47;96880.28;;;23.30;36.02
77212;BME280;66206;0.000;0.000;2023-08-06T08:22:13;96884.65;;;23.03;36.52
77212;BME280;66206;0.000;0.000;2023-08-06T08:24:40;96878.83;;;22.95;36.60
77212;BME280;66206;0.000;0.000;2023-08-06T08:27:07;96884.67;;;22.72;37.10
77212;BME280;66206;0.000;0.000;2023-08-06T08:29:34;96890.17;;;22.82;36.89
77212;BME280;66206;0.000;0.000;2023-08-06T08:32:00;96881.80;;;22.88;36.48
77212;BME280;66206;0.000;0.000;2023-08-06T08:34:27;96880.64;;;22.54;36.88
77212;BME280;66206;0.000;0.000;2023-08-06T08:36:54;96883.58;;;22.77;36.49
77212;BME280;66206;0.000;0.000;2023-08-06T08:39:20;96888.51;;;22.86;36.35
77212;BME280;66206;0.000;0.000;2023-08-06T08:41:47;96891.39;;;22.76;36.34
77212;BME280;66206;0.000;0.000;2023-08-06T08:44:14;96890.35;;;22.74;36.53
77212;BME280;66206;0.000;0.000;2023-08-06T08:46:43;96891.47;;;22.70;36.50
77212;BME280;66206;0.000;0.000;2023-08-06T08:49:10;96895.12;;;22.82;36.16
77212;BME280;66206;0.000;0.000;2023-08-06T08:51:37;96893.24;;;22.72;36.47
77212;BME280;66206;0.000;0.000;2023-08-06T08:54:04;96883.34;;;22.33;36.89
77212;BME280;66206;0.000;0.000;2023-08-06T08:56:33;96888.96;;;22.70;36.51
77212;BME280;66206;0.000;0.000;2023-08-06T08:59:00;96890.77;;;22.75;36.22
77212;BME280;66206;0.000;0.000;2023-08-06T09:01:27;96889.61;;;22.59;36.28
77212;BME280;66206;0.000;0.000;2023-08-06T09:03:54;96894.26;;;22.74;36.07
77212;BME280;66206;0.000;0.000;2023-08-06T09:06:21;96886.77;;;22.63;36.38
77212;BME280;66206;0.000;0.000;2023-08-06T09:08:50;96892.64;;;22.75;36.10
77212;BME280;66206;0.000;0.000;2023-08-06T09:11:17;96889.88;;;22.67;36.45
77212;BME280;66206;0.000;0.000;2023-08-06T09:13:45;96887.10;;;22.41;37.21
77212;BME280;66206;0.000;0.000;2023-08-06T09:16:12;96884.69;;;22.95;36.27
77212;BME280;66206;0.000;0.000;2023-08-06T09:18:39;96890.19;;;22.99;36.13
77212;BME280;66206;0.000;0.000;2023-08-06T09:21:06;96895.04;;;22.59;36.88
77212;BME280;66206;0.000;0.000;2023-08-06T09:23:34;96891.01;;;23.53;35.88
77212;BME280;66206;0.000;0.000;2023-08-06T09:26:01;96890.34;;;23.77;35.45
77212;BME280;66206;0.000;0.000;2023-08-06T09:28:36;96884.05;;;24.05;35.05
77212;BME280;66206;0.000;0.000;2023-08-06T09:30:59;96876.76;;;24.22;35.06
77212;BME280;66206;0.000;0.000;2023-08-06T09:33:26;96882.96;;;24.01;35.19
77212;BME280;66206;0.000;0.000;2023-08-06T09:35:55;96873.58;;;23.07;36.27
77212;BME280;66206;0.000;0.000;2023-08-06T09:38:22;96870.79;;;23.38;35.88
77212;BME280;66206;0.000;0.000;2023-08-06T09:40:49;96871.39;;;23.78;35.36
77212;BME280;66206;0.000;0.000;2023-08-06T09:43:18;96871.69;;;24.01;35.01
77212;BME280;66206;0.000;0.000;2023-08-06T09:45:45;96872.38;;;23.92;34.80
77212;BME280;66206;0.000;0.000;2023-08-06T09:48:12;96878.26;;;23.72;35.02
77212;BME280;66206;0.000;0.000;2023-08-06T09:50:39;96872.27;;;24.22;34.36
77212;BME280;66206;0.000;0.000;2023-08-06T09:53:06;96873.39;;;24.40;34.09
77212;BME280;66206;0.000;0.000;2023-08-06T09:55:33;96868.86;;;24.22;34.36
77212;BME280;66206;0.000;0.000;2023-08-06T09:58:00;96867.56;;;24.40;34.26
77212;BME280;66206;0.000;0.000;2023-08-06T10:00:27;96871.28;;;24.10;34.64
77212;BME280;66206;0.000;0.000;2023-08-06T10:02:54;96862.31;;;24.63;33.89
77212;BME280;66206;0.000;0.000;2023-08-06T10:05:22;96863.59;;;24.70;33.69
77212;BME280;66206;0.000;0.000;2023-08-06T10:07:49;96867.89;;;24.43;34.16
77212;BME280;66206;0.000;0.000;2023-08-06T10:10:16;96863.62;;;24.65;33.84
77212;BME280;66206;0.000;0.000;2023-08-06T10:12:44;96862.44;;;24.39;34.04
77212;BME280;66206;0.000;0.000;2023-08-06T10:15:13;96861.56;;;24.55;33.91
77212;BME280;66206;0.000;0.000;2023-08-06T10:17:42;96860.88;;;24.62;33.69
77212;BME280;66206;0.000;0.000;2023-08-06T10:20:10;96854.65;;;24.73;33.39
77212;BME280;66206;0.000;0.000;2023-08-06T10:22:38;96852.13;;;24.84;33.21
77212;BME280;66206;0.000;0.000;2023-08-06T10:25:03;96847.30;;;24.72;33.42
77212;BME280;66206;0.000;0.000;2023-08-06T10:27:31;96844.14;;;24.47;33.52
77212;BME280;66206;0.000;0.000;2023-08-06T10:30:31;96842.81;;;24.08;33.89
77212;BME280;66206;0.000;0.000;2023-08-06T10:32:46;96842.33;;;24.67;33.09
77212;BME280;66206;0.000;0.000;2023-08-06T10:34:57;96834.99;;;24.81;32.92
77212;BME280;66206;0.000;0.000;2023-08-06T10:37:25;96839.72;;;24.48;33.04
77212;BME280;66206;0.000;0.000;2023-08-06T10:39:50;96838.41;;;24.77;32.80
77212;BME280;66206;0.000;0.000;2023-08-06T10:42:21;96843.27;;;24.38;33.07
77212;BME280;66206;0.000;0.000;2023-08-06T10:44:55;96845.05;;;24.61;32.71
77212;BME280;66206;0.000;0.000;2023-08-06T10:47:26;96841.41;;;24.82;32.60
77212;BME280;66206;0.000;0.000;2023-08-06T10:49:37;96835.55;;;24.71;32.72
77212;BME280;66206;0.000;0.000;2023-08-06T10:52:04;96835.47;;;24.73;32.42
77212;BME280;66206;0.000;0.000;2023-08-06T10:54:30;96830.81;;;25.22;32.11
77212;BME280;66206;0.000;0.000;2023-08-06T10:56:57;96828.21;;;25.01;32.28
77212;BME280;66206;0.000;0.000;2023-08-06T10:59:24;96831.91;;;24.94;32.43
77212;BME280;66206;0.000;0.000;2023-08-06T11:01:51;96828.05;;;24.72;32.48
77212;BME280;66206;0.000;0.000;2023-08-06T11:04:18;96817.80;;;24.16;32.76
77212;BME280;66206;0.000;0.000;2023-08-06T11:06:45;96819.82;;;24.59;32.27
77212;BME280;66206;0.000;0.000;2023-08-06T11:09:13;96823.30;;;24.81;32.09
77212;BME280;66206;0.000;0.000;2023-08-06T11:11:39;96820.73;;;24.53;32.35
77212;BME280;66206;0.000;0.000;2023-08-06T11:14:06;96822.04;;;24.36;32.50
77212;BME280;66206;0.000;0.000;2023-08-06T11:16:33;96816.60;;;24.58;32.19
77212;BME280;66206;0.000;0.000;2023-08-06T11:19:00;96820.46;;;24.48;32.35
77212;BME280;66206;0.000;0.000;2023-08-06T11:21:26;96823.76;;;24.71;32.01
77212;BME280;66206;0.000;0.000;2023-08-06T11:23:53;96816.39;;;24.29;32.68
77212;BME280;66206;0.000;0.000;2023-08-06T11:26:20;96819.93;;;24.40;32.82
77212;BME280;66206;0.000;0.000;2023-08-06T11:28:47;96813.80;;;24.69;32.20
77212;BME280;66206;0.000;0.000;2023-08-06T11:31:21;96811.86;;;24.06;33.47
77212;BME280;66206;0.000;0.000;2023-08-06T11:33:43;96811.24;;;24.75;32.26
77212;BME280;66206;0.000;0.000;2023-08-06T11:36:09;96807.20;;;25.11;32.24
77212;BME280;66206;0.000;0.000;2023-08-06T11:38:36;96804.22;;;24.95;32.36
77212;BME280;66206;0.000;0.000;2023-08-06T11:41:03;96812.62;;;25.09;32.41
77212;BME280;66206;0.000;0.000;2023-08-06T11:43:30;96810.31;;;25.01;32.52
77212;BME280;66206;0.000;0.000;2023-08-06T11:45:57;96806.80;;;24.56;33.02
77212;BME280;66206;0.000;0.000;2023-08-06T11:48:24;96813.47;;;25.07;32.30
77212;BME280;66206;0.000;0.000;2023-08-06T11:50:53;96802.47;;;24.88;32.72
77212;BME280;66206;0.000;0.000;2023-08-06T11:53:20;96801.90;;;24.93;32.43
77212;BME280;66206;0.000;0.000;2023-08-06T11:55:47;96797.37;;;24.98;32.39
77212;BME280;66206;0.000;0.000;2023-08-06T11:58:14;96796.39;;;25.03;32.15
77212;BME280;66206;0.000;0.000;2023-08-06T12:00:43;96789.54;;;25.38;31.88
77212;BME280;66206;0.000;0.000;2023-08-06T12:03:10;96792.18;;;25.12;32.12
77212;BME280;66206;0.000;0.000;2023-08-06T12:05:37;96794.66;;;24.80;32.49
77212;BME280;66206;0.000;0.000;2023-08-06T12:08:04;96791.80;;;24.67;32.67
77212;BME280;66206;0.000;0.000;2023-08-06T12:10:31;96801.31;;;25.22;32.11
77212;BME280;66206;0.000;0.000;2023-08-06T12:12:58;96801.73;;;24.86;32.34
77212;BME280;66206;0.000;0.000;2023-08-06T12:15:24;96817.55;;;24.64;33.11
77212;BME280;66206;0.000;0.000;2023-08-06T12:17:51;96824.06;;;24.53;33.55
77212;BME280;66206;0.000;0.000;2023-08-06T12:20:18;96820.40;;;24.78;33.68
77212;BME280;66206;0.000;0.000;2023-08-06T12:22:45;96823.24;;;25.11;33.32
77212;BME280;66206;0.000;0.000;2023-08-06T12:25:12;96818.03;;;25.03;33.61
77212;BME280;66206;0.000;0.000;2023-08-06T12:27:39;96813.28;;;24.96;33.67
77212;BME280;66206;0.000;0.000;2023-08-06T12:30:06;96819.59;;;24.93;33.79
77212;BME280;66206;0.000;0.000;2023-08-06T12:32:33;96809.02;;;24.94;33.99
77212;BME280;66206;0.000;0.000;2023-08-06T12:35:00;96809.49;;;24.81;33.98
77212;BME280;66206;0.000;0.000;2023-08-06T12:37:28;96807.89;;;24.83;34.27
77212;BME280;66206;0.000;0.000;2023-08-06T12:39:54;96809.45;;;24.61;34.63
77212;BME280;66206;0.000;0.000;2023-08-06T12:42:21;96803.30;;;25.12;33.97
77212;BME280;66206;0.000;0.000;2023-08-06T12:44:48;96808.76;;;24.65;34.73
77212;BME280;66206;0.000;0.000;2023-08-06T12:47:15;96808.28;;;24.81;34.59
77212;BME280;66206;0.000;0.000;2023-08-06T12:49:42;96817.62;;;25.00;34.46
77212;BME280;66206;0.000;0.000;2023-08-06T12:52:09;96820.63;;;24.68;34.57
77212;BME280;66206;0.000;0.000;2023-08-06T12:54:36;96820.13;;;24.89;33.84
77212;BME280;66206;0.000;0.000;2023-08-06T12:57:03;96817.14;;;24.62;34.00
77212;BME280;66206;0.000;0.000;2023-08-06T12:59:30;96811.00;;;24.54;33.97
77212;BME280;66206;0.000;0.000;2023-08-06T13:01:57;96807.18;;;24.91;33.43
77212;BME280;66206;0.000;0.000;2023-08-06T13:04:23;96800.15;;;24.53;33.51
77212;BME280;66206;0.000;0.000;2023-08-06T13:06:50;96801.95;;;24.67;33.61